createdAt,value
2017-05-23T00:01:25.135Z,12.50
2017-05-23T00:03:52.134Z,12.50
2017-05-23T00:06:20.385Z,12.40
2017-05-23T00:08:48.099Z,12.40
2017-05-23T00:11:15.114Z,12.40
2017-05-23T00:13:42.458Z,12.40
2017-05-23T00:16:09.478Z,12.40
2017-05-23T00:18:36.490Z,12.40
2017-05-23T00:21:04.614Z,12.40
2017-05-23T00:23:31.626Z,12.30
2017-05-23T00:25:57.889Z,12.30
2017-05-23T00:28:25.186Z,12.20
2017-05-23T00:30:52.186Z,12.00
2017-05-23T00:33:19.198Z,11.90
2017-05-23T00:35:46.525Z,12.00
2017-05-23T00:38:13.526Z,11.90
2017-05-23T00:40:41.270Z,11.90
2017-05-23T00:43:08.591Z,11.80
2017-05-23T00:45:37.548Z,11.70
2017-05-23T00:48:04.545Z,11.70
2017-05-23T00:50:31.877Z,11.70
2017-05-23T00:52:58.902Z,11.60
2017-05-23T00:55:25.935Z,11.50
2017-05-23T00:57:53.318Z,11.40
2017-05-23T01:00:20.343Z,11.40
2017-05-23T01:02:47.356Z,11.50
2017-05-23T01:05:14.670Z,11.40
2017-05-23T01:07:41.682Z,11.30
2017-05-23T01:10:08.702Z,11.20
2017-05-23T01:12:36.122Z,11.20
2017-05-23T01:15:03.136Z,11.20
2017-05-23T01:17:30.134Z,11.20
2017-05-23T01:19:57.461Z,11.20
2017-05-23T01:22:24.461Z,11.10
2017-05-23T01:24:50.718Z,11.10
2017-05-23T01:27:18.094Z,11.20
2017-05-23T01:29:46.105Z,11.20
2017-05-23T01:32:13.122Z,10.90
2017-05-23T01:34:40.561Z,10.70
2017-05-23T01:37:06.850Z,10.60
2017-05-23T01:39:33.881Z,10.40
2017-05-23T01:42:01.201Z,10.50
2017-05-23T01:44:28.222Z,10.50
2017-05-23T01:46:55.261Z,10.50
2017-05-23T01:49:22.646Z,10.40
2017-05-23T01:51:48.909Z,10.40
2017-05-23T01:54:15.902Z,10.30
2017-05-23T01:56:44.023Z,10.30
2017-05-23T01:59:11.030Z,10.30
2017-05-23T02:01:38.046Z,10.30
2017-05-23T02:04:06.221Z,10.20
2017-05-23T02:06:33.217Z,10.10
2017-05-23T02:09:00.209Z,10.10
2017-05-23T02:11:28.362Z,10.00
2017-05-23T02:13:55.358Z,10.00
2017-05-23T02:16:23.416Z,10.00
2017-05-23T02:18:51.658Z,9.90
2017-05-23T02:21:18.703Z,9.90
2017-05-23T02:23:45.709Z,9.90
2017-05-23T02:26:13.025Z,9.80
2017-05-23T02:28:39.278Z,9.80
2017-05-23T02:31:06.293Z,9.80
2017-05-23T02:33:34.189Z,9.80
2017-05-23T02:36:01.189Z,9.90
2017-05-23T02:38:28.194Z,10.00
2017-05-23T02:40:56.465Z,9.90
2017-05-23T02:43:23.493Z,10.00
2017-05-23T02:45:50.493Z,9.80
2017-05-23T02:48:18.605Z,9.70
2017-05-23T02:50:45.609Z,9.60
2017-05-23T02:53:12.613Z,9.80
2017-05-23T02:55:40.913Z,9.80
2017-05-23T02:58:07.913Z,9.90
2017-05-23T03:00:34.926Z,9.80
2017-05-23T03:03:02.233Z,9.60
2017-05-23T03:05:30.624Z,9.50
2017-05-23T03:07:58.678Z,9.30
2017-05-23T03:10:26.885Z,9.20
2017-05-23T03:12:53.913Z,9.10
2017-05-23T03:15:22.044Z,9.10
2017-05-23T03:17:49.438Z,9.00
2017-05-23T03:20:16.493Z,9.00
2017-05-23T03:22:43.501Z,8.90
2017-05-23T03:25:10.982Z,8.90
2017-05-23T03:27:38.006Z,8.90
2017-05-23T03:30:05.013Z,8.80
2017-05-23T03:32:32.326Z,8.90
2017-05-23T03:34:59.326Z,8.90
2017-05-23T03:37:26.773Z,9.00
2017-05-23T03:39:53.769Z,9.00
2017-05-23T03:42:20.773Z,9.00
2017-05-23T03:44:48.073Z,9.00
2017-05-23T03:47:15.086Z,9.00
2017-05-23T03:49:42.086Z,9.10
2017-05-23T03:52:10.246Z,9.10
2017-05-23T03:54:37.261Z,9.10
2017-05-23T03:57:04.258Z,9.20
2017-05-23T03:59:31.594Z,9.20
2017-05-23T04:01:59.410Z,9.20
2017-05-23T04:04:26.423Z,9.30
2017-05-23T04:06:54.600Z,9.20
2017-05-23T04:09:21.625Z,9.20
2017-05-23T04:11:48.649Z,9.20
2017-05-23T04:14:16.015Z,9.30
2017-05-23T04:16:43.006Z,9.40
2017-05-23T04:19:10.001Z,9.50
2017-05-23T04:21:37.361Z,9.60
2017-05-23T04:24:04.358Z,9.70
2017-05-23T04:26:31.358Z,9.90
2017-05-23T04:28:58.704Z,10.00
2017-05-23T04:31:25.706Z,10.10
2017-05-23T04:33:52.700Z,10.20
2017-05-23T04:36:21.077Z,10.30
2017-05-23T04:38:48.075Z,10.50
2017-05-23T04:41:15.069Z,10.70
2017-05-23T04:43:42.439Z,10.90
2017-05-23T04:46:09.494Z,11.00
2017-05-23T04:48:36.505Z,11.30
2017-05-23T04:51:04.794Z,11.60
2017-05-23T04:53:32.862Z,11.50
2017-05-23T04:55:59.861Z,12.00
2017-05-23T04:58:28.115Z,12.60
2017-05-23T05:00:55.108Z,12.90
2017-05-23T05:03:22.098Z,13.20
2017-05-23T05:05:49.425Z,13.60
2017-05-23T05:08:17.473Z,13.70
2017-05-23T05:10:44.474Z,13.90
2017-05-23T05:13:12.762Z,14.00
2017-05-23T05:15:39.761Z,14.10
2017-05-23T05:18:06.757Z,14.10
2017-05-23T05:20:34.161Z,14.10
2017-05-23T05:23:01.955Z,14.20
2017-05-23T05:25:28.949Z,14.20
2017-05-23T05:27:56.334Z,14.20
2017-05-23T05:30:23.334Z,14.30
2017-05-23T05:32:50.353Z,14.40
2017-05-23T05:35:17.685Z,14.60
2017-05-23T05:37:43.953Z,14.50
2017-05-23T05:40:10.955Z,14.70
2017-05-23T05:42:38.302Z,14.70
2017-05-23T05:45:05.310Z,14.70
2017-05-23T05:47:32.496Z,14.80
2017-05-23T05:50:00.644Z,14.80
2017-05-23T05:52:26.904Z,14.80
2017-05-23T05:54:53.910Z,15.00
2017-05-23T05:57:21.138Z,14.90
2017-05-23T05:59:48.147Z,15.30
2017-05-23T06:02:15.165Z,15.50
2017-05-23T06:04:42.545Z,15.80
2017-05-23T06:07:09.542Z,16.00
2017-05-23T06:09:36.529Z,15.90
2017-05-23T06:12:03.837Z,16.40
2017-05-23T06:14:32.846Z,16.70
2017-05-23T06:16:59.937Z,16.70
2017-05-23T06:19:27.386Z,16.60
2017-05-23T06:21:54.386Z,16.70
2017-05-23T06:24:20.641Z,16.70
2017-05-23T06:26:47.965Z,17.00
2017-05-23T06:29:14.991Z,16.70
2017-05-23T06:31:42.001Z,16.60
2017-05-23T06:34:09.357Z,16.70
2017-05-23T06:36:36.358Z,16.80
2017-05-23T06:39:02.674Z,16.80
2017-05-23T06:41:29.986Z,17.00
2017-05-23T06:43:56.981Z,17.00
2017-05-23T06:46:23.987Z,17.10
2017-05-23T06:48:52.121Z,17.20
2017-05-23T06:51:19.134Z,17.00
2017-05-23T06:53:47.145Z,17.00
2017-05-23T06:56:15.282Z,16.90
2017-05-23T06:58:42.279Z,16.70
2017-05-23T07:01:09.282Z,17.00
2017-05-23T07:03:37.405Z,17.00
2017-05-23T07:06:04.401Z,16.90
2017-05-23T07:08:30.689Z,16.90
2017-05-23T07:10:58.038Z,17.20
2017-05-23T07:13:25.049Z,17.40
2017-05-23T07:15:52.054Z,17.80
2017-05-23T07:18:19.374Z,18.20
2017-05-23T07:20:46.377Z,18.20
2017-05-23T07:23:13.380Z,18.40
2017-05-23T07:25:40.762Z,18.70
2017-05-23T07:28:07.762Z,18.50
2017-05-23T07:30:34.766Z,18.40
2017-05-23T07:33:02.173Z,18.60
2017-05-23T07:35:30.209Z,18.80
2017-05-23T07:37:57.202Z,18.40
2017-05-23T07:40:24.537Z,18.50
2017-05-23T07:42:51.530Z,18.50
2017-05-23T07:45:18.630Z,18.60
2017-05-23T07:47:45.986Z,18.70
2017-05-23T07:50:13.005Z,19.20
2017-05-23T07:52:40.011Z,19.60
2017-05-23T07:55:08.195Z,19.50
2017-05-23T07:57:35.242Z,19.30
2017-05-23T08:00:03.249Z,19.50
2017-05-23T08:02:29.802Z,19.40
2017-05-23T08:04:56.810Z,20.20
2017-05-23T08:07:23.827Z,20.00
2017-05-23T08:09:51.250Z,20.30
2017-05-23T08:12:18.245Z,20.60
2017-05-23T08:14:45.254Z,20.30
2017-05-23T08:17:13.394Z,20.00
2017-05-23T08:19:40.409Z,20.50
2017-05-23T08:22:07.417Z,20.70
2017-05-23T08:24:34.763Z,20.60
2017-05-23T08:27:01.769Z,20.50
2017-05-23T08:29:28.773Z,20.70
2017-05-23T08:31:56.107Z,20.70
2017-05-23T08:34:23.101Z,21.30
2017-05-23T08:36:50.097Z,21.10
2017-05-23T08:39:17.453Z,20.60
2017-05-23T08:41:44.449Z,20.40
2017-05-23T08:44:10.729Z,20.40
2017-05-23T08:46:38.081Z,20.30
2017-05-23T08:49:05.085Z,20.70
2017-05-23T08:51:32.081Z,21.30
2017-05-23T08:53:59.425Z,21.10
2017-05-23T08:56:26.422Z,21.80
2017-05-23T08:58:53.417Z,22.10
2017-05-23T09:01:21.693Z,21.20
2017-05-23T09:03:48.689Z,20.80
2017-05-23T09:06:15.694Z,20.30
2017-05-23T09:08:43.043Z,20.20
2017-05-23T09:11:10.054Z,20.60
2017-05-23T09:13:37.050Z,19.90
2017-05-23T09:16:04.389Z,20.20
2017-05-23T09:18:31.393Z,20.40
2017-05-23T09:20:58.397Z,20.20
2017-05-23T09:23:25.713Z,20.50
2017-05-23T09:25:58.902Z,20.30
2017-05-23T09:28:25.154Z,20.30
2017-05-23T09:30:53.178Z,20.40
2017-05-23T09:33:20.173Z,20.50
2017-05-23T09:35:47.169Z,20.50
2017-05-23T09:38:13.770Z,20.40
2017-05-23T09:40:40.773Z,20.90
2017-05-23T09:43:07.041Z,20.90
2017-05-23T09:45:35.094Z,21.50
2017-05-23T09:48:02.121Z,21.60
2017-05-23T09:50:29.142Z,21.50
2017-05-23T09:52:57.373Z,21.90
2017-05-23T09:55:24.383Z,22.10
2017-05-23T09:57:51.384Z,22.10
2017-05-23T10:00:18.678Z,22.20
2017-05-23T10:02:45.685Z,21.50
2017-05-23T10:05:12.677Z,20.90
2017-05-23T10:07:40.045Z,21.00
2017-05-23T10:10:07.041Z,21.30
2017-05-23T10:12:34.042Z,21.30
2017-05-23T10:15:01.387Z,21.70
2017-05-23T10:17:28.394Z,22.20
2017-05-23T10:19:55.401Z,21.70
2017-05-23T10:22:23.454Z,22.70
2017-05-23T10:24:50.488Z,22.30
2017-05-23T10:27:17.498Z,22.30
2017-05-23T10:29:45.534Z,22.10
2017-05-23T10:32:12.542Z,21.60
2017-05-23T10:34:39.557Z,22.20
2017-05-23T10:37:07.170Z,22.40
2017-05-23T10:39:34.186Z,23.00
2017-05-23T10:42:01.474Z,22.70
2017-05-23T10:44:28.929Z,22.70
2017-05-23T10:46:55.941Z,22.60
2017-05-23T10:49:23.954Z,22.40
2017-05-23T10:51:52.082Z,22.30
2017-05-23T10:54:19.102Z,22.90
2017-05-23T10:56:46.142Z,22.30
2017-05-23T10:59:14.329Z,22.40
2017-05-23T11:01:41.329Z,23.00
2017-05-23T11:04:08.334Z,22.50
2017-05-23T11:06:36.565Z,22.10
2017-05-23T11:09:02.877Z,22.00
2017-05-23T11:11:29.881Z,22.50
2017-05-23T11:13:57.894Z,22.90
2017-05-23T11:16:24.902Z,23.20
2017-05-23T11:18:51.911Z,23.50
2017-05-23T11:21:19.233Z,23.40
2017-05-23T11:23:46.233Z,23.10
2017-05-23T11:26:13.240Z,23.20
2017-05-23T11:28:41.426Z,23.60
2017-05-23T11:31:08.429Z,23.90
2017-05-23T11:33:35.477Z,24.00
2017-05-23T11:36:03.721Z,23.40
2017-05-23T11:38:30.717Z,23.80
2017-05-23T11:40:57.717Z,24.10
2017-05-23T11:43:25.850Z,24.40
2017-05-23T11:45:52.915Z,24.20
2017-05-23T11:48:19.946Z,23.90
2017-05-23T11:50:47.274Z,23.20
2017-05-23T11:53:14.286Z,23.20
2017-05-23T11:55:41.285Z,23.00
2017-05-23T11:58:09.311Z,23.00
2017-05-23T12:00:35.586Z,23.00
2017-05-23T12:03:02.597Z,25.20
2017-05-23T12:05:29.866Z,24.20
2017-05-23T12:07:56.885Z,23.70
2017-05-23T12:10:23.890Z,24.00
2017-05-23T12:12:51.954Z,24.40
2017-05-23T12:15:19.129Z,24.40
2017-05-23T12:17:45.394Z,24.40
2017-05-23T12:20:12.962Z,24.60
2017-05-23T12:22:40.976Z,24.10
2017-05-23T12:25:07.978Z,25.40
2017-05-23T12:27:36.110Z,26.40
2017-05-23T12:30:03.113Z,27.20
2017-05-23T12:32:30.105Z,26.70
2017-05-23T12:34:58.339Z,26.70
2017-05-23T12:37:25.348Z,26.40
2017-05-23T12:39:52.352Z,26.90
2017-05-23T12:42:19.661Z,26.60
2017-05-23T12:44:46.658Z,27.30
2017-05-23T12:47:13.656Z,26.30
2017-05-23T12:49:41.745Z,27.00
2017-05-23T12:52:08.749Z,25.50
2017-05-23T12:54:35.789Z,25.40
2017-05-23T12:57:03.794Z,25.50
2017-05-23T12:59:30.798Z,26.10
2017-05-23T13:01:57.798Z,26.20
2017-05-23T13:04:25.922Z,26.50
2017-05-23T13:06:52.922Z,27.50
2017-05-23T13:09:19.938Z,28.00
2017-05-23T13:11:48.178Z,25.30
2017-05-23T13:14:15.177Z,25.40
2017-05-23T13:16:43.334Z,26.10
2017-05-23T13:19:10.689Z,24.90
2017-05-23T13:21:37.686Z,25.50
2017-05-23T13:24:05.521Z,25.20
2017-05-23T13:26:33.681Z,25.70
2017-05-23T13:29:00.681Z,25.10
2017-05-23T13:31:26.945Z,25.10
2017-05-23T13:33:54.303Z,27.40
2017-05-23T13:36:22.321Z,26.00
2017-05-23T13:38:50.245Z,25.90
2017-05-23T13:41:17.602Z,25.00
2017-05-23T13:43:45.041Z,24.30
2017-05-23T13:46:12.053Z,24.10
2017-05-23T13:48:40.761Z,23.70
2017-05-23T13:51:07.770Z,24.00
2017-05-23T13:53:34.774Z,23.80
2017-05-23T13:56:02.130Z,23.70
2017-05-23T13:58:29.129Z,23.80
2017-05-23T14:00:56.130Z,23.70
2017-05-23T14:03:23.475Z,25.10
2017-05-23T14:05:51.486Z,24.90
2017-05-23T14:08:18.499Z,25.00
2017-05-23T14:10:45.841Z,26.10
2017-05-23T14:13:12.838Z,27.00
2017-05-23T14:15:40.133Z,26.80
2017-05-23T14:18:08.356Z,23.50
2017-05-23T14:20:35.421Z,23.20
2017-05-23T14:23:03.474Z,22.80
2017-05-23T14:25:31.530Z,22.70
2017-05-23T14:27:59.541Z,21.90
2017-05-23T14:30:26.571Z,21.60
2017-05-23T14:32:53.873Z,21.30
2017-05-23T14:35:20.125Z,21.20
2017-05-23T14:37:47.122Z,20.20
2017-05-23T14:40:15.481Z,20.40
2017-05-23T14:42:42.445Z,20.10
2017-05-23T14:45:10.055Z,19.80
2017-05-23T14:47:38.158Z,19.50
2017-05-23T14:50:05.182Z,18.90
2017-05-23T14:52:32.186Z,19.30
2017-05-23T14:55:00.333Z,19.90
2017-05-23T14:57:27.330Z,20.40
2017-05-23T14:59:54.330Z,21.50
2017-05-23T15:02:22.558Z,21.40
2017-05-23T15:04:49.585Z,22.10
2017-05-23T15:07:16.574Z,22.60
2017-05-23T15:09:44.813Z,21.80
2017-05-23T15:12:11.827Z,21.50
2017-05-23T15:14:38.821Z,21.40
2017-05-23T15:17:06.149Z,20.40
2017-05-23T15:19:33.154Z,20.40
2017-05-23T15:22:00.161Z,20.60
2017-05-23T15:24:28.303Z,20.80
2017-05-23T15:26:55.322Z,21.20
2017-05-23T15:29:23.355Z,22.50
2017-05-23T15:31:51.881Z,22.00
2017-05-23T15:34:18.155Z,22.00
2017-05-23T15:36:45.169Z,22.70
2017-05-23T15:39:12.542Z,24.60
2017-05-23T15:41:39.551Z,25.60
2017-05-23T15:44:06.544Z,24.80
2017-05-23T15:46:33.954Z,24.70
2017-05-23T15:49:00.974Z,26.80
2017-05-23T15:51:28.069Z,27.10
2017-05-23T15:53:56.179Z,27.40
2017-05-23T15:56:23.326Z,26.60
2017-05-23T15:58:50.327Z,26.00
2017-05-23T16:01:18.481Z,25.50
2017-05-23T16:03:45.483Z,25.30
2017-05-23T16:06:12.480Z,24.30
2017-05-23T16:08:40.739Z,23.50
2017-05-23T16:11:07.755Z,22.30
2017-05-23T16:13:34.753Z,22.80
2017-05-23T16:16:03.011Z,22.60
2017-05-23T16:18:30.014Z,22.80
2017-05-23T16:20:57.014Z,22.80
2017-05-23T16:23:24.394Z,22.90
2017-05-23T16:25:51.398Z,22.80
2017-05-23T16:28:18.398Z,22.70
2017-05-23T16:30:45.761Z,22.40
2017-05-23T16:33:12.765Z,21.90
2017-05-23T16:35:39.773Z,21.90
2017-05-23T16:38:08.041Z,21.50
2017-05-23T16:40:35.056Z,21.40
2017-05-23T16:43:02.053Z,21.30
2017-05-23T16:45:29.351Z,21.30
2017-05-23T16:47:56.384Z,21.30
2017-05-23T16:50:23.383Z,21.30
2017-05-23T16:52:50.713Z,21.10
2017-05-23T16:55:17.718Z,21.00
2017-05-23T16:57:44.728Z,21.20
2017-05-23T17:00:12.050Z,21.10
2017-05-23T17:02:39.055Z,20.80
2017-05-23T17:05:06.062Z,20.80
2017-05-23T17:07:33.338Z,20.80
2017-05-23T17:10:00.358Z,20.80
2017-05-23T17:12:27.369Z,20.80
2017-05-23T17:14:55.345Z,20.50
2017-05-23T17:17:22.362Z,20.30
2017-05-23T17:19:49.386Z,20.20
2017-05-23T17:22:17.533Z,20.30
2017-05-23T17:24:44.538Z,20.70
2017-05-23T17:27:11.556Z,20.80
2017-05-23T17:29:38.849Z,20.80
2017-05-23T17:32:05.858Z,20.70
2017-05-23T17:34:32.866Z,20.60
2017-05-23T17:37:01.226Z,20.60
2017-05-23T17:39:28.232Z,20.40
2017-05-23T17:41:55.245Z,20.30
2017-05-23T17:44:22.574Z,20.20
2017-05-23T17:46:49.577Z,20.20
2017-05-23T17:49:16.585Z,20.20
2017-05-23T17:51:43.921Z,20.20
2017-05-23T17:54:10.934Z,20.00
2017-05-23T17:56:37.934Z,19.80
2017-05-23T17:59:06.354Z,19.60
2017-05-23T18:01:33.357Z,19.50
2017-05-23T18:04:00.358Z,19.50
2017-05-23T18:06:27.734Z,19.40
2017-05-23T18:08:54.735Z,19.20
2017-05-23T18:11:21.727Z,19.20
2017-05-23T18:13:49.093Z,19.20
2017-05-23T18:16:16.099Z,19.10
2017-05-23T18:18:42.380Z,19.10
2017-05-23T18:21:09.830Z,18.80
2017-05-23T18:23:36.119Z,18.80
2017-05-23T18:26:03.125Z,18.70
2017-05-23T18:28:31.373Z,18.60
2017-05-23T18:30:58.407Z,18.50
2017-05-23T18:33:25.426Z,18.40
2017-05-23T18:35:53.602Z,18.30
2017-05-23T18:38:20.611Z,18.20
2017-05-23T18:40:47.614Z,18.10
2017-05-23T18:43:14.975Z,18.00
2017-05-23T18:45:42.250Z,17.90
2017-05-23T18:48:09.456Z,17.80
2017-05-23T18:50:36.766Z,17.70
2017-05-23T18:53:04.799Z,17.70
2017-05-23T18:55:31.814Z,17.60
2017-05-23T18:57:59.099Z,17.40
2017-05-23T19:00:25.350Z,17.40
2017-05-23T19:02:53.010Z,17.30
2017-05-23T19:05:20.356Z,17.20
2017-05-23T19:07:47.365Z,17.00
2017-05-23T19:10:13.653Z,16.90
2017-05-23T19:12:40.958Z,16.70
2017-05-23T19:15:07.985Z,16.60
2017-05-23T19:17:35.002Z,16.60
2017-05-23T19:20:02.318Z,16.60
2017-05-23T19:22:29.329Z,16.40
2017-05-23T19:24:56.382Z,16.50
2017-05-23T19:27:23.656Z,16.30
2017-05-23T19:29:50.661Z,16.20
2017-05-23T19:32:17.694Z,16.30
2017-05-23T19:34:45.105Z,16.10
2017-05-23T19:37:12.117Z,16.10
2017-05-23T19:39:39.118Z,16.00
2017-05-23T19:42:06.460Z,15.90
2017-05-23T19:44:33.467Z,15.80
2017-05-23T19:47:00.457Z,15.70
2017-05-23T19:49:29.145Z,15.60
2017-05-23T19:51:56.161Z,15.60
2017-05-23T19:54:23.162Z,15.50
2017-05-23T19:56:51.209Z,15.50
2017-05-23T19:59:18.231Z,15.50
2017-05-23T20:01:45.241Z,15.60
2017-05-23T20:04:12.658Z,15.50
2017-05-23T20:06:39.676Z,15.50
2017-05-23T20:09:06.724Z,15.30
2017-05-23T20:11:34.091Z,15.30
2017-05-23T20:14:02.111Z,15.30
2017-05-23T20:16:29.141Z,15.20
2017-05-23T20:18:56.419Z,15.20
2017-05-23T20:21:23.423Z,15.20
2017-05-23T20:23:50.458Z,15.40
2017-05-23T20:26:18.920Z,15.50
2017-05-23T20:28:45.937Z,15.60
2017-05-23T20:31:13.098Z,15.60
2017-05-23T20:33:40.486Z,15.50
2017-05-23T20:36:06.747Z,15.50
2017-05-23T20:38:33.756Z,15.50
2017-05-23T20:41:01.902Z,15.60
2017-05-23T20:43:28.913Z,15.50
2017-05-23T20:45:55.930Z,15.40
2017-05-23T20:48:24.207Z,15.30
2017-05-23T20:50:51.210Z,15.30
2017-05-23T20:53:18.216Z,15.20
2017-05-23T20:55:45.847Z,15.20
2017-05-23T20:58:12.846Z,15.20
2017-05-23T21:00:39.857Z,15.10
2017-05-23T21:03:08.210Z,15.10
2017-05-23T21:05:35.214Z,15.20
2017-05-23T21:08:02.218Z,15.30
2017-05-23T21:10:29.610Z,15.30
2017-05-23T21:12:56.619Z,15.40
2017-05-23T21:15:24.273Z,15.50
2017-05-23T21:17:51.662Z,15.40
2017-05-23T21:20:18.669Z,15.50
2017-05-23T21:22:46.577Z,15.50
2017-05-23T21:25:13.902Z,15.40
2017-05-23T21:27:40.908Z,15.50
2017-05-23T21:30:07.914Z,15.50
2017-05-23T21:32:35.237Z,15.50
2017-05-23T21:35:02.255Z,15.50
2017-05-23T21:37:29.251Z,15.50
2017-05-23T21:39:57.269Z,15.50
2017-05-23T21:42:24.279Z,15.50
2017-05-23T21:44:51.274Z,15.50
2017-05-23T21:47:19.365Z,15.50
2017-05-23T21:49:46.375Z,15.60
2017-05-23T21:52:14.074Z,15.70
2017-05-23T21:54:41.426Z,15.60
2017-05-23T21:57:07.672Z,15.60
2017-05-23T21:59:34.691Z,15.60
2017-05-23T22:02:02.057Z,15.50
2017-05-23T22:04:29.061Z,15.50
2017-05-23T22:06:55.329Z,15.50
2017-05-23T22:09:22.682Z,15.50
2017-05-23T22:11:49.678Z,15.40
2017-05-23T22:14:16.707Z,15.40
2017-05-23T22:16:44.030Z,15.30
2017-05-23T22:19:11.034Z,15.10
2017-05-23T22:21:38.041Z,15.20
2017-05-23T22:24:04.653Z,15.10
2017-05-23T22:26:31.690Z,15.20
2017-05-23T22:28:58.698Z,15.20
2017-05-23T22:31:26.974Z,15.30
2017-05-23T22:33:53.971Z,15.30
2017-05-23T22:36:20.989Z,15.30
2017-05-23T22:38:48.381Z,15.30
2017-05-23T22:41:15.386Z,15.30
2017-05-23T22:43:42.397Z,15.30
2017-05-23T22:46:09.824Z,15.20
2017-05-23T22:48:36.892Z,15.30
2017-05-23T22:51:03.878Z,15.20
2017-05-23T22:53:31.263Z,15.30
2017-05-23T22:55:58.265Z,15.30
2017-05-23T22:58:24.533Z,15.20
2017-05-23T23:00:51.808Z,15.40
2017-05-23T23:03:18.815Z,15.30
2017-05-23T23:05:45.813Z,15.30
2017-05-23T23:08:13.133Z,15.20
2017-05-23T23:10:40.142Z,15.40
2017-05-23T23:13:07.134Z,15.30
2017-05-23T23:15:35.409Z,15.40
2017-05-23T23:18:02.405Z,15.40
2017-05-23T23:20:28.673Z,15.30
2017-05-23T23:22:56.025Z,15.50
2017-05-23T23:25:23.034Z,15.40
2017-05-23T23:27:50.041Z,15.40
2017-05-23T23:30:17.374Z,15.40
2017-05-23T23:32:44.598Z,15.50
2017-05-23T23:35:10.863Z,15.50
2017-05-23T23:37:38.210Z,15.60
2017-05-23T23:40:06.028Z,15.50
2017-05-23T23:42:33.022Z,15.50
2017-05-23T23:45:00.297Z,15.50
2017-05-23T23:47:27.325Z,15.60
2017-05-23T23:49:54.331Z,15.50
2017-05-23T23:52:22.560Z,15.50
2017-05-23T23:54:49.558Z,15.50
2017-05-23T23:57:16.566Z,15.50
2017-05-23T23:59:44.623Z,15.40
